createdAt,value
2018-07-27T00:00:43.165Z,946.91
2018-07-27T00:01:43.111Z,946.90
2018-07-27T00:02:42.993Z,946.91
2018-07-27T00:03:42.902Z,946.92
2018-07-27T00:04:42.814Z,946.88
2018-07-27T00:05:42.724Z,946.87
2018-07-27T00:06:42.668Z,946.91
2018-07-27T00:07:42.550Z,946.87
2018-07-27T00:08:42.561Z,946.87
2018-07-27T00:09:42.382Z,946.89
2018-07-27T00:10:42.289Z,946.86
2018-07-27T00:11:42.238Z,946.91
2018-07-27T00:12:42.116Z,946.93
2018-07-27T00:13:42.029Z,946.83
2018-07-27T00:14:41.944Z,946.82
2018-07-27T00:15:41.857Z,946.84
2018-07-27T00:16:41.798Z,946.81
2018-07-27T00:17:41.681Z,946.84
2018-07-27T00:18:41.596Z,946.78
2018-07-27T00:19:41.505Z,946.79
2018-07-27T00:20:41.424Z,946.76
2018-07-27T00:21:41.363Z,946.77
2018-07-27T00:22:41.247Z,946.78
2018-07-27T00:23:41.160Z,946.76
2018-07-27T00:24:41.070Z,946.76
2018-07-27T00:25:40.984Z,946.74
2018-07-27T00:26:40.927Z,946.74
2018-07-27T00:27:40.809Z,946.73
2018-07-27T00:28:40.724Z,946.71
2018-07-27T00:29:40.639Z,946.75
2018-07-27T00:30:40.548Z,946.73
2018-07-27T00:31:40.493Z,946.72
2018-07-27T00:32:40.377Z,946.71
2018-07-27T00:33:40.287Z,946.73
2018-07-27T00:34:40.200Z,946.79
2018-07-27T00:35:40.114Z,946.74
2018-07-27T00:36:40.078Z,946.75
2018-07-27T00:37:39.938Z,946.79
2018-07-27T00:38:39.854Z,946.72
2018-07-27T00:39:39.765Z,946.72
2018-07-27T00:40:39.679Z,946.76
2018-07-27T00:41:39.594Z,946.73
2018-07-27T00:42:39.534Z,946.74
2018-07-27T00:43:39.418Z,946.72
2018-07-27T00:44:39.334Z,946.72
2018-07-27T00:45:39.247Z,946.73
2018-07-27T00:46:39.159Z,946.72
2018-07-27T00:47:39.117Z,946.72
2018-07-27T00:48:38.983Z,946.71
2018-07-27T00:49:38.895Z,946.72
2018-07-27T00:50:38.809Z,946.68
2018-07-27T00:51:38.726Z,946.71
2018-07-27T00:52:38.665Z,946.69
2018-07-27T00:53:38.547Z,946.70
2018-07-27T00:54:38.462Z,946.64
2018-07-27T00:55:38.376Z,946.67
2018-07-27T00:56:38.288Z,946.63
2018-07-27T00:57:38.233Z,946.67
2018-07-27T00:58:38.111Z,946.65
2018-07-27T00:59:38.026Z,946.67
2018-07-27T01:00:37.938Z,946.68
2018-07-27T01:01:37.851Z,946.72
2018-07-27T01:02:37.799Z,946.65
2018-07-27T01:03:37.678Z,946.66
2018-07-27T01:04:37.592Z,946.64
2018-07-27T01:05:37.506Z,946.65
2018-07-27T01:06:37.416Z,946.68
2018-07-27T01:07:37.362Z,946.62
2018-07-27T01:08:37.244Z,946.59
2018-07-27T01:09:37.154Z,946.61
2018-07-27T01:10:37.066Z,946.60
2018-07-27T01:11:36.979Z,946.62
2018-07-27T01:12:36.927Z,946.61
2018-07-27T01:13:36.809Z,946.58
2018-07-27T01:14:36.717Z,946.62
2018-07-27T01:15:36.632Z,946.62
2018-07-27T01:16:36.549Z,946.58
2018-07-27T01:17:36.578Z,946.59
2018-07-27T01:18:36.368Z,946.60
2018-07-27T01:19:36.284Z,946.59
2018-07-27T01:20:36.194Z,946.58
2018-07-27T01:21:36.109Z,946.61
2018-07-27T01:22:36.052Z,946.66
2018-07-27T01:23:35.934Z,946.63
2018-07-27T01:24:35.845Z,946.64
2018-07-27T01:25:35.758Z,946.63
2018-07-27T01:26:35.670Z,946.62
2018-07-27T01:27:35.615Z,946.64
2018-07-27T01:28:35.496Z,946.64
2018-07-27T01:29:35.409Z,946.63
2018-07-27T01:30:35.317Z,946.58
2018-07-27T01:31:35.231Z,946.59
2018-07-27T01:32:35.179Z,946.60
2018-07-27T01:33:35.058Z,946.59
2018-07-27T01:34:34.971Z,946.60
2018-07-27T01:35:34.883Z,946.57
2018-07-27T01:36:34.796Z,946.60
2018-07-27T01:37:34.738Z,946.60
2018-07-27T01:38:34.618Z,946.59
2018-07-27T01:39:34.531Z,946.59
2018-07-27T01:40:34.449Z,946.58
2018-07-27T01:41:34.357Z,946.59
2018-07-27T01:42:34.296Z,946.55
2018-07-27T01:43:34.181Z,946.55
2018-07-27T01:44:34.090Z,946.57
2018-07-27T01:45:34.001Z,946.55
2018-07-27T01:46:33.919Z,946.55
2018-07-27T01:47:33.859Z,946.54
2018-07-27T01:48:33.739Z,946.52
2018-07-27T01:49:33.649Z,946.49
2018-07-27T01:50:33.566Z,946.51
2018-07-27T01:51:33.476Z,946.52
2018-07-27T01:52:33.420Z,946.50
2018-07-27T01:53:33.300Z,946.48
2018-07-27T01:54:33.211Z,946.49
2018-07-27T01:55:33.124Z,946.46
2018-07-27T01:56:33.036Z,946.46
2018-07-27T01:57:32.977Z,946.47
2018-07-27T01:58:32.862Z,946.44
2018-07-27T01:59:32.771Z,946.48
2018-07-27T02:00:32.684Z,946.48
2018-07-27T02:01:32.596Z,946.46
2018-07-27T02:02:32.539Z,946.45
2018-07-27T02:03:32.420Z,946.45
2018-07-27T02:04:32.332Z,946.42
2018-07-27T02:05:32.243Z,946.45
2018-07-27T02:06:32.158Z,946.43
2018-07-27T02:07:32.075Z,946.45
2018-07-27T02:08:32.015Z,946.44
2018-07-27T02:09:31.894Z,946.45
2018-07-27T02:10:31.808Z,946.45
2018-07-27T02:11:31.717Z,946.44
2018-07-27T02:12:31.631Z,946.42
2018-07-27T02:13:31.573Z,946.44
2018-07-27T02:14:31.720Z,946.44
2018-07-27T02:15:31.369Z,946.44
2018-07-27T02:16:31.280Z,946.41
2018-07-27T02:17:31.194Z,946.44
2018-07-27T02:18:31.133Z,946.41
2018-07-27T02:19:31.016Z,946.41
2018-07-27T02:20:30.928Z,946.43
2018-07-27T02:21:30.935Z,946.43
2018-07-27T02:22:30.754Z,946.45
2018-07-27T02:23:30.700Z,946.43
2018-07-27T02:24:30.599Z,946.41
2018-07-27T02:25:30.487Z,946.39
2018-07-27T02:26:30.403Z,946.40
2018-07-27T02:27:30.315Z,946.38
2018-07-27T02:28:30.348Z,946.39
2018-07-27T02:29:30.142Z,946.40
2018-07-27T02:30:30.050Z,946.40
2018-07-27T02:31:29.966Z,946.35
2018-07-27T02:32:29.880Z,946.39
2018-07-27T02:33:29.823Z,946.39
2018-07-27T02:34:29.702Z,946.38
2018-07-27T02:35:29.718Z,946.36
2018-07-27T02:36:29.525Z,946.34
2018-07-27T02:37:29.439Z,946.35
2018-07-27T02:38:29.381Z,946.36
2018-07-27T02:39:29.263Z,946.30
2018-07-27T02:40:29.181Z,946.30
2018-07-27T02:41:29.089Z,946.26
2018-07-27T02:42:29.093Z,946.28
2018-07-27T02:43:28.946Z,946.26
2018-07-27T02:44:28.828Z,946.27
2018-07-27T02:45:28.743Z,946.22
2018-07-27T02:46:28.647Z,946.22
2018-07-27T02:47:28.561Z,946.25
2018-07-27T02:48:28.507Z,946.25
2018-07-27T02:49:28.481Z,946.24
2018-07-27T02:50:28.299Z,946.23
2018-07-27T02:51:28.271Z,946.25
2018-07-27T02:52:28.122Z,946.24
2018-07-27T02:53:28.072Z,946.21
2018-07-27T02:54:27.947Z,946.21
2018-07-27T02:55:27.856Z,946.24
2018-07-27T02:56:27.874Z,946.19
2018-07-27T02:57:27.685Z,946.18
2018-07-27T02:58:27.628Z,946.21
2018-07-27T02:59:27.511Z,946.25
2018-07-27T03:00:27.421Z,946.22
2018-07-27T03:01:27.335Z,946.24
2018-07-27T03:02:27.250Z,946.20
2018-07-27T03:03:27.281Z,946.24
2018-07-27T03:04:27.070Z,946.25
2018-07-27T03:05:26.991Z,946.25
2018-07-27T03:06:26.895Z,946.22
2018-07-27T03:07:26.809Z,946.24
2018-07-27T03:08:26.750Z,946.26
2018-07-27T03:09:26.632Z,946.23
2018-07-27T03:10:26.643Z,946.24
2018-07-27T03:11:26.456Z,946.25
2018-07-27T03:12:26.368Z,946.21
2018-07-27T03:13:26.313Z,946.21
2018-07-27T03:14:26.193Z,946.25
2018-07-27T03:15:26.108Z,946.19
2018-07-27T03:16:26.020Z,946.15
2018-07-27T03:17:25.930Z,946.16
2018-07-27T03:18:25.887Z,946.18
2018-07-27T03:19:25.768Z,946.18
2018-07-27T03:20:25.667Z,946.17
2018-07-27T03:21:25.582Z,946.16
2018-07-27T03:22:25.492Z,946.19
2018-07-27T03:23:25.436Z,946.17
2018-07-27T03:24:25.315Z,946.19
2018-07-27T03:25:25.229Z,946.23
2018-07-27T03:26:25.144Z,946.20
2018-07-27T03:27:25.051Z,946.22
2018-07-27T03:28:24.992Z,946.21
2018-07-27T03:29:24.877Z,946.22
2018-07-27T03:30:24.789Z,946.24
2018-07-27T03:31:24.700Z,946.22
2018-07-27T03:32:24.612Z,946.22
2018-07-27T03:33:24.556Z,946.26
2018-07-27T03:34:24.434Z,946.24
2018-07-27T03:35:24.347Z,946.25
2018-07-27T03:36:24.261Z,946.25
2018-07-27T03:37:24.170Z,946.22
2018-07-27T03:38:24.113Z,946.28
2018-07-27T03:39:24.006Z,946.31
2018-07-27T03:40:23.905Z,946.32
2018-07-27T03:41:23.817Z,946.33
2018-07-27T03:42:23.725Z,946.36
2018-07-27T03:43:23.643Z,946.32
2018-07-27T03:44:23.582Z,946.33
2018-07-27T03:45:23.462Z,946.37
2018-07-27T03:46:23.373Z,946.35
2018-07-27T03:47:23.287Z,946.34
2018-07-27T03:48:23.199Z,946.34
2018-07-27T03:49:23.140Z,946.35
2018-07-27T03:50:23.021Z,946.34
2018-07-27T03:51:22.941Z,946.37
2018-07-27T03:52:22.842Z,946.38
2018-07-27T03:53:22.753Z,946.35
2018-07-27T03:54:22.693Z,946.35
2018-07-27T03:55:22.575Z,946.36
2018-07-27T03:56:22.489Z,946.36
2018-07-27T03:57:22.401Z,946.31
2018-07-27T03:58:22.309Z,946.34
2018-07-27T03:59:22.255Z,946.34
2018-07-27T04:00:22.132Z,946.31
2018-07-27T04:01:22.044Z,946.35
2018-07-27T04:02:22.004Z,946.36
2018-07-27T04:03:21.866Z,946.33
2018-07-27T04:04:21.809Z,946.38
2018-07-27T04:05:21.686Z,946.35
2018-07-27T04:06:21.597Z,946.34
2018-07-27T04:07:21.520Z,946.34
2018-07-27T04:08:21.421Z,946.36
2018-07-27T04:09:21.361Z,946.40
2018-07-27T04:10:21.242Z,946.33
2018-07-27T04:11:21.154Z,946.38
2018-07-27T04:12:21.070Z,946.35
2018-07-27T04:13:20.978Z,946.37
2018-07-27T04:14:20.917Z,946.29
2018-07-27T04:15:20.800Z,946.31
2018-07-27T04:16:20.714Z,946.33
2018-07-27T04:17:20.621Z,946.35
2018-07-27T04:18:20.532Z,946.32
2018-07-27T04:19:20.479Z,946.34
2018-07-27T04:20:20.356Z,946.33
2018-07-27T04:21:20.265Z,946.31
2018-07-27T04:22:20.213Z,946.33
2018-07-27T04:23:20.091Z,946.34
2018-07-27T04:24:20.034Z,946.38
2018-07-27T04:25:19.912Z,946.37
2018-07-27T04:26:19.883Z,946.38
2018-07-27T04:27:19.741Z,946.37
2018-07-27T04:28:19.644Z,946.35
2018-07-27T04:29:19.585Z,946.37
2018-07-27T04:30:19.469Z,946.40
2018-07-27T04:31:19.379Z,946.37
2018-07-27T04:32:19.289Z,946.39
2018-07-27T04:33:19.305Z,946.40
2018-07-27T04:34:19.140Z,946.46
2018-07-27T04:35:19.022Z,946.42
2018-07-27T04:36:18.934Z,946.41
2018-07-27T04:37:18.847Z,946.45
2018-07-27T04:38:18.760Z,946.41
2018-07-27T04:39:18.697Z,946.41
2018-07-27T04:40:18.579Z,946.38
2018-07-27T04:41:18.536Z,946.39
2018-07-27T04:42:18.402Z,946.38
2018-07-27T04:43:18.334Z,946.44
2018-07-27T04:44:18.256Z,946.40
2018-07-27T04:45:18.136Z,946.40
2018-07-27T04:46:18.049Z,946.41
2018-07-27T04:47:18.050Z,946.38
2018-07-27T04:48:17.875Z,946.39
2018-07-27T04:49:17.818Z,946.38
2018-07-27T04:50:17.697Z,946.40
2018-07-27T04:51:17.603Z,946.38
2018-07-27T04:52:17.519Z,946.35
2018-07-27T04:53:17.431Z,946.40
2018-07-27T04:54:17.454Z,946.36
2018-07-27T04:55:17.252Z,946.35
2018-07-27T04:56:17.216Z,946.32
2018-07-27T04:57:17.075Z,946.35
2018-07-27T04:58:16.986Z,946.35
2018-07-27T04:59:16.930Z,946.36
2018-07-27T05:00:16.812Z,946.36
2018-07-27T05:01:16.814Z,946.39
2018-07-27T05:02:16.655Z,946.45
2018-07-27T05:03:16.552Z,946.43
2018-07-27T05:04:16.488Z,946.45
2018-07-27T05:05:16.370Z,946.45
2018-07-27T05:06:16.283Z,946.47
2018-07-27T05:07:16.195Z,946.49
2018-07-27T05:08:16.202Z,946.50
2018-07-27T05:09:16.019Z,946.51
2018-07-27T05:10:15.959Z,946.52
2018-07-27T05:11:15.843Z,946.55
2018-07-27T05:12:15.753Z,946.54
2018-07-27T05:13:15.666Z,946.57
2018-07-27T05:14:15.591Z,946.53
2018-07-27T05:15:15.627Z,946.54
2018-07-27T05:16:15.405Z,946.54
2018-07-27T05:17:15.320Z,946.57
2018-07-27T05:18:15.266Z,946.57
2018-07-27T05:19:15.146Z,946.56
2018-07-27T05:20:15.087Z,946.56
2018-07-27T05:21:14.965Z,946.55
2018-07-27T05:22:14.969Z,946.58
2018-07-27T05:23:14.792Z,946.59
2018-07-27T05:24:14.707Z,946.63
2018-07-27T05:25:14.647Z,946.60
2018-07-27T05:26:14.529Z,946.62
2018-07-27T05:27:14.444Z,946.59
2018-07-27T05:28:14.356Z,946.63
2018-07-27T05:29:14.267Z,946.64
2018-07-27T05:30:14.210Z,946.64
2018-07-27T05:31:14.094Z,946.69
2018-07-27T05:32:14.006Z,946.66
2018-07-27T05:33:13.917Z,946.68
2018-07-27T05:34:13.871Z,946.64
2018-07-27T05:35:13.798Z,946.63
2018-07-27T05:36:13.750Z,946.71
2018-07-27T05:37:13.571Z,946.74
2018-07-27T05:38:13.482Z,946.77
2018-07-27T05:39:13.398Z,946.70
2018-07-27T05:40:13.340Z,946.70
2018-07-27T05:41:13.223Z,946.72
2018-07-27T05:42:13.139Z,946.71
2018-07-27T05:43:13.050Z,946.72
2018-07-27T05:44:12.968Z,946.72
2018-07-27T05:45:12.907Z,946.73
2018-07-27T05:46:12.794Z,946.74
2018-07-27T05:47:12.752Z,946.76
2018-07-27T05:48:12.622Z,946.75
2018-07-27T05:49:12.536Z,946.72
2018-07-27T05:50:12.475Z,946.72
2018-07-27T05:51:12.359Z,946.74
2018-07-27T05:52:12.272Z,946.77
2018-07-27T05:53:12.188Z,946.79
2018-07-27T05:54:12.098Z,946.72
2018-07-27T05:55:12.046Z,946.68
2018-07-27T05:56:11.925Z,946.68
2018-07-27T05:57:11.841Z,946.71
2018-07-27T05:58:11.753Z,946.71
2018-07-27T05:59:11.676Z,946.68
2018-07-27T06:00:11.611Z,946.68
2018-07-27T06:01:11.499Z,946.65
2018-07-27T06:02:11.414Z,946.63
2018-07-27T06:03:11.323Z,946.67
2018-07-27T06:04:11.242Z,946.67
2018-07-27T06:05:11.187Z,946.67
2018-07-27T06:06:11.066Z,946.71
2018-07-27T06:07:10.980Z,946.69
2018-07-27T06:08:10.894Z,946.72
2018-07-27T06:09:10.813Z,946.70
2018-07-27T06:10:10.755Z,946.74
2018-07-27T06:11:10.691Z,946.73
2018-07-27T06:12:10.552Z,946.73
2018-07-27T06:13:10.466Z,946.72
2018-07-27T06:14:10.384Z,946.74
2018-07-27T06:15:10.329Z,946.77
2018-07-27T06:16:10.209Z,946.79
2018-07-27T06:17:10.124Z,946.78
2018-07-27T06:18:10.075Z,946.80
2018-07-27T06:19:09.954Z,946.75
2018-07-27T06:20:09.899Z,946.74
2018-07-27T06:21:09.786Z,946.70
2018-07-27T06:22:09.699Z,946.73
2018-07-27T06:23:09.619Z,946.72
2018-07-27T06:24:09.611Z,946.72
2018-07-27T06:25:09.474Z,946.75
2018-07-27T06:26:09.359Z,946.74
2018-07-27T06:27:09.274Z,946.73
2018-07-27T06:28:09.208Z,946.74
2018-07-27T06:29:09.135Z,946.73
2018-07-27T06:30:09.051Z,946.75
2018-07-27T06:31:08.935Z,946.75
2018-07-27T06:32:08.847Z,946.81
2018-07-27T06:33:08.763Z,946.79
2018-07-27T06:34:08.679Z,946.95
2018-07-27T06:35:08.619Z,947.01
2018-07-27T06:36:08.511Z,946.81
2018-07-27T06:37:08.426Z,946.73
2018-07-27T06:38:08.340Z,946.74
2018-07-27T06:39:08.303Z,946.68
2018-07-27T06:40:08.171Z,946.69
2018-07-27T06:41:08.116Z,946.73
2018-07-27T06:42:08.002Z,946.77
2018-07-27T06:43:07.917Z,946.82
2018-07-27T06:44:07.832Z,946.99
2018-07-27T06:45:07.766Z,947.26
2018-07-27T06:46:07.697Z,947.39
2018-07-27T06:47:07.583Z,947.74
2018-07-27T06:48:07.495Z,948.06
2018-07-27T06:49:07.415Z,948.63
2018-07-27T06:50:07.326Z,949.16
2018-07-27T06:51:07.275Z,949.28
2018-07-27T06:52:07.159Z,949.56
2018-07-27T06:53:07.074Z,949.85
2018-07-27T06:54:06.989Z,949.91
2018-07-27T06:55:06.910Z,950.19
2018-07-27T06:56:06.855Z,950.31
2018-07-27T06:57:06.742Z,950.36
2018-07-27T06:58:06.657Z,950.48
2018-07-27T06:59:06.574Z,950.62
2018-07-27T07:00:06.493Z,951.09
2018-07-27T07:01:06.440Z,951.61
2018-07-27T07:02:06.324Z,951.79
2018-07-27T07:03:06.246Z,951.96
2018-07-27T07:04:06.164Z,952.26
2018-07-27T07:05:06.082Z,952.87
2018-07-27T07:06:06.027Z,953.28
2018-07-27T07:07:05.914Z,953.49
2018-07-27T07:08:05.831Z,953.58
2018-07-27T07:09:05.773Z,953.96
2018-07-27T07:10:05.672Z,954.97
2018-07-27T07:11:05.623Z,957.18
2018-07-27T07:12:05.508Z,959.67
2018-07-27T07:13:05.431Z,960.09
2018-07-27T07:14:05.351Z,957.00
2018-07-27T07:15:05.267Z,953.92
2018-07-27T07:16:05.217Z,951.97
2018-07-27T07:17:05.110Z,951.02
2018-07-27T07:18:05.032Z,950.76
2018-07-27T07:19:04.947Z,950.38
2018-07-27T07:20:04.963Z,950.17
2018-07-27T07:21:04.819Z,949.97
2018-07-27T07:22:04.708Z,949.85
2018-07-27T07:23:04.634Z,950.00
2018-07-27T07:24:04.550Z,950.05
2018-07-27T07:25:04.519Z,950.15
2018-07-27T07:26:04.840Z,950.35
2018-07-27T07:27:04.418Z,950.54
2018-07-27T07:28:04.232Z,951.01
2018-07-27T07:29:04.154Z,951.36
2018-07-27T07:30:04.073Z,951.16
2018-07-27T07:31:04.027Z,950.65
2018-07-27T07:32:03.915Z,950.40
2018-07-27T07:33:03.848Z,950.20
2018-07-27T07:34:03.850Z,950.14
2018-07-27T07:35:03.679Z,950.14
2018-07-27T07:36:03.629Z,950.04
2018-07-27T07:37:03.521Z,949.92
2018-07-27T07:38:03.441Z,949.93
2018-07-27T07:39:03.375Z,949.86
2018-07-27T07:40:03.285Z,949.92
2018-07-27T07:41:03.332Z,949.85
2018-07-27T07:42:03.130Z,949.87
2018-07-27T07:43:03.053Z,949.88
2018-07-27T07:44:02.978Z,949.93
2018-07-27T07:45:02.958Z,950.13
2018-07-27T07:46:02.847Z,950.20
2018-07-27T07:47:02.742Z,950.13
2018-07-27T07:48:02.755Z,950.15
2018-07-27T07:49:02.585Z,950.44
2018-07-27T07:50:02.508Z,950.85
2018-07-27T07:51:02.476Z,951.02
2018-07-27T07:52:02.354Z,951.13
2018-07-27T07:53:02.272Z,951.08
2018-07-27T07:54:02.208Z,950.97
2018-07-27T07:55:02.215Z,950.88
2018-07-27T07:56:02.047Z,949.50
2018-07-27T07:57:01.997Z,948.37
2018-07-27T07:58:01.888Z,950.36
2018-07-27T07:59:01.813Z,950.65
2018-07-27T08:00:01.734Z,950.81
2018-07-27T08:01:01.656Z,950.88
2018-07-27T08:02:01.706Z,950.77
2018-07-27T08:03:01.504Z,950.67
2018-07-27T08:04:01.427Z,950.80
2018-07-27T08:05:01.352Z,950.72
2018-07-27T08:06:01.274Z,950.51
2018-07-27T08:07:01.226Z,950.28
2018-07-27T08:08:01.121Z,950.38
2018-07-27T08:09:01.135Z,950.36
2018-07-27T08:10:00.965Z,950.20
2018-07-27T08:11:00.886Z,949.99
2018-07-27T08:12:00.843Z,949.87
2018-07-27T08:13:00.735Z,949.84
2018-07-27T08:14:00.658Z,949.87
2018-07-27T08:15:00.596Z,949.84
2018-07-27T08:16:00.689Z,947.25
2018-07-27T08:17:00.462Z,947.10
2018-07-27T08:18:00.354Z,947.12
2018-07-27T08:19:00.277Z,949.36
2018-07-27T08:20:00.202Z,949.30
2018-07-27T08:21:00.125Z,949.20
2018-07-27T08:22:00.077Z,949.21
2018-07-27T08:22:59.973Z,946.98
2018-07-27T08:23:59.896Z,946.97
2018-07-27T08:24:59.825Z,947.05
2018-07-27T08:25:59.769Z,947.08
2018-07-27T08:26:59.699Z,947.06
2018-07-27T08:27:59.591Z,947.59
2018-07-27T08:28:59.512Z,949.01
2018-07-27T08:29:59.437Z,947.10
2018-07-27T08:30:59.360Z,948.64
2018-07-27T08:31:59.315Z,946.98
2018-07-27T08:32:59.204Z,948.61
2018-07-27T08:33:59.129Z,948.57
2018-07-27T08:34:59.055Z,948.61
2018-07-27T08:35:58.974Z,948.36
2018-07-27T08:36:58.942Z,948.39
2018-07-27T08:37:58.823Z,948.32
2018-07-27T08:38:58.790Z,948.24
2018-07-27T08:39:58.681Z,947.82
2018-07-27T08:40:58.588Z,947.68
2018-07-27T08:41:58.511Z,948.08
2018-07-27T08:42:58.467Z,948.09
2018-07-27T08:43:58.362Z,948.11
2018-07-27T08:44:58.275Z,948.00
2018-07-27T08:45:58.203Z,947.97
2018-07-27T08:46:58.124Z,947.88
2018-07-27T08:47:58.079Z,947.93
2018-07-27T08:48:58.009Z,948.02
2018-07-27T08:49:57.891Z,948.07
2018-07-27T08:50:57.815Z,947.80
2018-07-27T08:51:57.750Z,947.39
2018-07-27T08:52:57.692Z,947.51
2018-07-27T08:53:57.584Z,947.76
2018-07-27T08:54:57.506Z,947.80
2018-07-27T08:55:57.428Z,947.79
2018-07-27T08:56:57.351Z,947.82
2018-07-27T08:57:57.304Z,947.75
2018-07-27T08:58:57.200Z,947.71
2018-07-27T08:59:57.119Z,947.70
2018-07-27T09:00:57.044Z,946.82
2018-07-27T09:01:56.968Z,946.85
2018-07-27T09:02:56.921Z,946.93
2018-07-27T09:03:56.858Z,946.63
2018-07-27T09:04:56.733Z,946.67
2018-07-27T09:05:56.661Z,946.66
2018-07-27T09:06:56.582Z,946.87
2018-07-27T09:07:56.537Z,947.30
2018-07-27T09:08:56.429Z,947.43
2018-07-27T09:09:56.354Z,947.69
2018-07-27T09:10:56.276Z,947.83
2018-07-27T09:11:56.202Z,947.87
2018-07-27T09:12:56.151Z,947.89
2018-07-27T09:13:56.051Z,947.90
2018-07-27T09:14:55.972Z,947.98
2018-07-27T09:15:55.893Z,948.06
2018-07-27T09:16:55.816Z,948.03
2018-07-27T09:17:55.768Z,947.21
2018-07-27T09:18:55.660Z,947.24
2018-07-27T09:19:55.584Z,947.00
2018-07-27T09:20:55.506Z,946.85
2018-07-27T09:21:55.431Z,946.91
2018-07-27T09:22:55.384Z,946.80
2018-07-27T09:23:55.282Z,946.76
2018-07-27T09:24:55.435Z,946.80
2018-07-27T09:25:55.219Z,946.81
2018-07-27T09:26:55.045Z,946.81
2018-07-27T09:27:54.999Z,946.79
2018-07-27T09:28:54.891Z,946.82
2018-07-27T09:29:54.811Z,946.77
2018-07-27T09:30:54.733Z,946.71
2018-07-27T09:31:54.655Z,946.67
2018-07-27T09:32:54.607Z,946.62
2018-07-27T09:33:54.498Z,946.59
2018-07-27T09:34:54.421Z,946.53
2018-07-27T09:35:54.344Z,946.54
2018-07-27T09:36:54.265Z,946.46
2018-07-27T09:37:54.186Z,946.53
2018-07-27T09:38:54.132Z,946.55
2018-07-27T09:39:54.026Z,946.56
2018-07-27T09:40:53.946Z,946.65
2018-07-27T09:41:53.864Z,946.63
2018-07-27T09:42:53.789Z,946.64
2018-07-27T09:43:53.737Z,946.69
2018-07-27T09:44:53.623Z,946.69
2018-07-27T09:45:53.545Z,946.76
2018-07-27T09:46:53.469Z,946.79
2018-07-27T09:47:53.383Z,946.84
2018-07-27T09:48:53.331Z,946.86
2018-07-27T09:49:53.221Z,946.90
2018-07-27T09:50:53.143Z,946.88
2018-07-27T09:51:53.061Z,946.85
2018-07-27T09:52:52.980Z,946.86
2018-07-27T09:53:52.950Z,946.86
2018-07-27T09:54:52.812Z,946.82
2018-07-27T09:55:52.731Z,946.84
2018-07-27T09:56:52.644Z,946.81
2018-07-27T09:57:52.573Z,946.85
2018-07-27T09:58:52.511Z,946.85
2018-07-27T09:59:52.395Z,946.87
2018-07-27T10:00:52.405Z,946.88
2018-07-27T10:01:52.229Z,946.86
2018-07-27T10:02:52.150Z,946.85
2018-07-27T10:03:52.097Z,946.85
2018-07-27T10:04:51.979Z,946.85
2018-07-27T10:05:51.950Z,946.86
2018-07-27T10:06:51.802Z,946.90
2018-07-27T10:07:51.806Z,946.92
2018-07-27T10:08:51.658Z,946.90
2018-07-27T10:09:51.544Z,946.88
2018-07-27T10:10:51.457Z,946.91
2018-07-27T10:11:51.374Z,946.95
2018-07-27T10:12:51.312Z,946.91
2018-07-27T10:13:51.231Z,946.88
2018-07-27T10:14:51.115Z,946.82
2018-07-27T10:15:51.027Z,946.80
2018-07-27T10:16:50.946Z,946.81
2018-07-27T10:17:50.855Z,946.80
2018-07-27T10:18:50.807Z,946.83
2018-07-27T10:19:50.681Z,946.86
2018-07-27T10:20:50.594Z,946.86
2018-07-27T10:21:50.598Z,946.89
2018-07-27T10:22:50.423Z,946.87
2018-07-27T10:23:50.337Z,946.86
2018-07-27T10:24:50.277Z,946.86
2018-07-27T10:25:50.161Z,946.88
2018-07-27T10:26:50.076Z,946.90
2018-07-27T10:27:49.986Z,946.94
2018-07-27T10:28:49.989Z,946.99
2018-07-27T10:29:49.845Z,946.99
2018-07-27T10:30:49.724Z,947.04
2018-07-27T10:31:49.638Z,947.04
2018-07-27T10:32:49.552Z,947.04
2018-07-27T10:33:49.463Z,947.06
2018-07-27T10:34:49.409Z,947.08
2018-07-27T10:35:49.394Z,947.12
2018-07-27T10:36:49.202Z,947.12
2018-07-27T10:37:49.119Z,947.13
2018-07-27T10:38:49.029Z,947.15
2018-07-27T10:39:48.970Z,947.14
2018-07-27T10:40:48.863Z,947.12
2018-07-27T10:41:48.770Z,947.11
2018-07-27T10:42:48.773Z,947.13
2018-07-27T10:43:48.593Z,947.13
2018-07-27T10:44:48.549Z,947.09
2018-07-27T10:45:48.419Z,947.08
2018-07-27T10:46:48.331Z,947.04
2018-07-27T10:47:48.248Z,947.08
2018-07-27T10:48:48.158Z,947.10
2018-07-27T10:49:48.198Z,947.03
2018-07-27T10:50:47.986Z,947.09
2018-07-27T10:51:47.898Z,947.03
2018-07-27T10:52:47.813Z,947.03
2018-07-27T10:53:47.726Z,946.98
2018-07-27T10:54:47.671Z,947.03
2018-07-27T10:55:47.556Z,946.94
2018-07-27T10:56:47.561Z,946.96
2018-07-27T10:57:47.383Z,946.93
2018-07-27T10:58:47.295Z,946.90
2018-07-27T10:59:47.213Z,946.91
2018-07-27T11:00:47.155Z,946.94
2018-07-27T11:01:47.042Z,946.92
2018-07-27T11:02:46.955Z,946.88
2018-07-27T11:03:46.960Z,946.84
2018-07-27T11:04:46.786Z,946.80
2018-07-27T11:05:46.727Z,946.79
2018-07-27T11:06:46.612Z,946.73
2018-07-27T11:07:46.530Z,946.69
2018-07-27T11:08:46.541Z,946.72
2018-07-27T11:09:46.409Z,946.71
2018-07-27T11:10:46.397Z,946.72
2018-07-27T11:11:46.188Z,946.72
2018-07-27T11:12:46.101Z,946.70
2018-07-27T11:13:46.018Z,946.72
2018-07-27T11:14:45.937Z,946.70
2018-07-27T11:15:45.882Z,946.66
2018-07-27T11:16:45.852Z,946.67
2018-07-27T11:17:45.715Z,946.70
2018-07-27T11:18:45.598Z,946.73
2018-07-27T11:19:45.508Z,946.70
2018-07-27T11:20:45.468Z,946.70
2018-07-27T11:21:45.339Z,946.72
2018-07-27T11:22:45.255Z,946.70
2018-07-27T11:23:45.290Z,946.72
2018-07-27T11:24:45.086Z,946.69
2018-07-27T11:25:45.035Z,946.63
2018-07-27T11:26:44.916Z,946.63
2018-07-27T11:27:44.830Z,946.59
2018-07-27T11:28:44.753Z,946.62
2018-07-27T11:29:44.663Z,946.61
2018-07-27T11:30:44.607Z,946.60
2018-07-27T11:31:44.494Z,946.59
2018-07-27T11:32:44.409Z,946.76
2018-07-27T11:33:44.325Z,946.93
2018-07-27T11:34:44.243Z,946.95
2018-07-27T11:35:44.187Z,946.61
2018-07-27T11:36:44.074Z,946.84
2018-07-27T11:37:43.990Z,946.58
2018-07-27T11:38:43.907Z,946.45
2018-07-27T11:39:43.824Z,946.63
2018-07-27T11:40:43.767Z,946.54
2018-07-27T11:41:43.656Z,946.47
2018-07-27T11:42:43.588Z,946.38
2018-07-27T11:43:43.493Z,946.67
2018-07-27T11:44:43.407Z,946.70
2018-07-27T11:45:43.363Z,946.68
2018-07-27T11:46:43.244Z,946.69
2018-07-27T11:47:43.162Z,946.61
2018-07-27T11:48:43.082Z,946.51
2018-07-27T11:49:42.996Z,946.47
2018-07-27T11:50:42.921Z,946.61
2018-07-27T11:51:42.866Z,946.57
2018-07-27T11:52:42.754Z,946.54
2018-07-27T11:53:42.671Z,946.53
2018-07-27T11:54:42.592Z,946.55
2018-07-27T11:55:42.512Z,946.54
2018-07-27T11:56:42.462Z,946.43
2018-07-27T11:57:42.350Z,946.61
2018-07-27T11:58:42.269Z,946.63
2018-07-27T11:59:42.191Z,946.56
2018-07-27T12:00:42.112Z,946.60
2018-07-27T12:01:42.112Z,946.58
2018-07-27T12:02:41.950Z,946.23
2018-07-27T12:03:41.870Z,946.14
2018-07-27T12:04:41.789Z,946.12
2018-07-27T12:05:41.712Z,946.11
2018-07-27T12:06:41.661Z,946.09
2018-07-27T12:07:41.553Z,946.31
2018-07-27T12:08:41.473Z,946.45
2018-07-27T12:09:41.391Z,946.54
2018-07-27T12:10:41.316Z,946.39
2018-07-27T12:11:41.264Z,946.15
2018-07-27T12:12:41.153Z,946.04
2018-07-27T12:13:41.077Z,946.02
2018-07-27T12:14:41.017Z,946.15
2018-07-27T12:15:40.915Z,946.07
2018-07-27T12:16:40.868Z,946.22
2018-07-27T12:17:40.756Z,945.94
2018-07-27T12:18:40.678Z,946.01
2018-07-27T12:19:40.597Z,946.04
2018-07-27T12:20:40.577Z,946.27
2018-07-27T12:21:40.658Z,945.91
2018-07-27T12:22:40.355Z,945.98
2018-07-27T12:23:40.278Z,946.09
2018-07-27T12:24:40.201Z,945.82
2018-07-27T12:25:40.117Z,946.00
2018-07-27T12:26:40.043Z,945.95
2018-07-27T12:27:39.991Z,945.98